createdAt,value
2018-09-08T00:02:10.926Z,16.20
2018-09-08T00:04:39.862Z,16.10
2018-09-08T00:07:14.297Z,16.10
2018-09-08T00:09:43.217Z,16.10
2018-09-08T00:12:12.148Z,16.10
2018-09-08T00:14:40.316Z,16.20
2018-09-08T00:17:14.607Z,16.20
2018-09-08T00:19:48.995Z,16.10
2018-09-08T00:22:23.381Z,16.10
2018-09-08T00:24:57.768Z,16.20
2018-09-08T00:27:32.081Z,16.30
2018-09-08T00:30:05.249Z,16.30
2018-09-08T00:32:34.215Z,16.30
2018-09-08T00:35:03.163Z,16.30
2018-09-08T00:37:32.088Z,16.20
2018-09-08T00:40:01.072Z,16.10
2018-09-08T00:42:30.137Z,15.90
2018-09-08T00:44:59.069Z,15.80
2018-09-08T00:47:28.221Z,15.80
2018-09-08T00:49:57.225Z,15.70
2018-09-08T00:52:26.199Z,15.70
2018-09-08T00:54:55.702Z,15.60
2018-09-08T00:57:24.709Z,15.60
2018-09-08T00:59:53.792Z,15.60
2018-09-08T01:02:22.717Z,15.60
2018-09-08T01:04:51.625Z,15.60
2018-09-08T01:07:26.058Z,15.60
2018-09-08T01:09:56.779Z,15.50
2018-09-08T01:12:26.286Z,15.50
2018-09-08T01:14:55.221Z,15.40
2018-09-08T01:17:24.581Z,15.40
2018-09-08T01:19:53.509Z,15.30
2018-09-08T01:22:22.706Z,15.30
2018-09-08T01:24:51.819Z,15.20
2018-09-08T01:27:20.736Z,15.20
2018-09-08T01:29:49.644Z,15.10
2018-09-08T01:32:18.821Z,15.00
2018-09-08T01:34:47.816Z,15.00
2018-09-08T01:37:16.724Z,14.90
2018-09-08T01:39:45.694Z,14.90
2018-09-08T01:42:14.760Z,14.90
2018-09-08T01:44:43.683Z,14.80
2018-09-08T01:47:12.609Z,14.80
2018-09-08T01:49:41.554Z,14.80
2018-09-08T01:52:10.494Z,14.70
2018-09-08T01:54:39.458Z,14.60
2018-09-08T01:57:08.355Z,14.60
2018-09-08T01:59:37.314Z,14.60
2018-09-08T02:02:06.654Z,14.50
2018-09-08T02:04:35.710Z,14.50
2018-09-08T02:07:04.904Z,14.40
2018-09-08T02:09:33.827Z,14.40
2018-09-08T02:12:02.818Z,14.40
2018-09-08T02:14:31.710Z,14.40
2018-09-08T02:17:00.692Z,14.40
2018-09-08T02:19:29.697Z,14.30
2018-09-08T02:21:58.909Z,14.30
2018-09-08T02:24:28.189Z,14.20
2018-09-08T02:26:57.115Z,14.20
2018-09-08T02:29:26.117Z,14.20
2018-09-08T02:31:55.045Z,14.10
2018-09-08T02:34:24.065Z,14.10
2018-09-08T02:36:53.031Z,14.10
2018-09-08T02:39:21.946Z,14.00
2018-09-08T02:41:50.925Z,14.00
2018-09-08T02:44:20.035Z,14.00
2018-09-08T02:46:49.109Z,13.90
2018-09-08T02:49:18.109Z,13.90
2018-09-08T02:51:45.958Z,13.80
2018-09-08T02:54:14.021Z,13.80
2018-09-08T02:56:41.857Z,13.70
2018-09-08T02:59:09.706Z,13.70
2018-09-08T03:01:37.578Z,13.70
2018-09-08T03:04:05.425Z,13.60
2018-09-08T03:06:33.281Z,13.60
2018-09-08T03:09:01.127Z,13.60
2018-09-08T03:11:28.994Z,13.60
2018-09-08T03:13:56.871Z,13.60
2018-09-08T03:16:24.836Z,13.50
2018-09-08T03:18:52.730Z,13.50
2018-09-08T03:21:20.599Z,13.50
2018-09-08T03:23:48.555Z,13.50
2018-09-08T03:26:16.443Z,13.40
2018-09-08T03:28:44.478Z,13.40
2018-09-08T03:31:12.328Z,13.40
2018-09-08T03:33:40.210Z,13.40
2018-09-08T03:36:08.068Z,13.40
2018-09-08T03:38:36.206Z,13.30
2018-09-08T03:41:04.069Z,13.30
2018-09-08T03:43:31.952Z,13.30
2018-09-08T03:45:59.816Z,13.30
2018-09-08T03:48:27.728Z,13.20
2018-09-08T03:50:55.769Z,13.20
2018-09-08T03:53:23.638Z,13.20
2018-09-08T03:55:51.509Z,13.20
2018-09-08T03:58:19.351Z,13.10
2018-09-08T04:00:47.417Z,13.10
2018-09-08T04:03:16.339Z,13.00
2018-09-08T04:05:45.426Z,13.00
2018-09-08T04:08:14.455Z,13.00
2018-09-08T04:10:43.378Z,12.90
2018-09-08T04:13:12.302Z,12.90
2018-09-08T04:15:41.248Z,12.90
2018-09-08T04:18:10.203Z,12.90
2018-09-08T04:20:39.346Z,12.80
2018-09-08T04:23:08.255Z,12.80
2018-09-08T04:25:37.188Z,12.80
2018-09-08T04:28:06.177Z,12.80
2018-09-08T04:30:35.137Z,12.70
2018-09-08T04:33:04.406Z,12.70
2018-09-08T04:35:33.325Z,12.70
2018-09-08T04:38:02.272Z,12.70
2018-09-08T04:40:31.273Z,12.70
2018-09-08T04:43:00.251Z,12.70
2018-09-08T04:45:29.281Z,12.70
2018-09-08T04:47:58.243Z,12.70
2018-09-08T04:50:27.321Z,12.70
2018-09-08T04:52:56.261Z,12.70
2018-09-08T04:55:25.219Z,12.70
2018-09-08T04:57:54.161Z,12.70
2018-09-08T05:00:23.111Z,12.60
2018-09-08T05:02:52.223Z,12.70
2018-09-08T05:05:21.221Z,12.60
2018-09-08T05:07:50.126Z,12.70
2018-09-08T05:10:19.177Z,12.70
2018-09-08T05:12:48.091Z,12.70
2018-09-08T05:15:17.022Z,12.70
2018-09-08T05:17:45.976Z,12.70
2018-09-08T05:20:14.918Z,12.70
2018-09-08T05:22:44.205Z,12.80
2018-09-08T05:25:13.192Z,12.80
2018-09-08T05:27:42.133Z,12.80
2018-09-08T05:30:11.158Z,12.80
2018-09-08T05:32:40.173Z,12.80
2018-09-08T05:35:09.626Z,12.90
2018-09-08T05:37:38.775Z,12.90
2018-09-08T05:40:08.166Z,12.90
2018-09-08T05:42:37.116Z,12.90
2018-09-08T05:45:06.418Z,13.00
2018-09-08T05:47:35.330Z,13.00
2018-09-08T05:50:04.390Z,13.00
2018-09-08T05:52:33.624Z,13.00
2018-09-08T05:55:02.640Z,13.10
2018-09-08T05:57:31.670Z,13.10
2018-09-08T06:00:00.611Z,13.10
2018-09-08T06:02:29.646Z,13.20
2018-09-08T06:04:58.600Z,13.20
2018-09-08T06:07:27.561Z,13.20
2018-09-08T06:09:56.564Z,13.30
2018-09-08T06:12:25.618Z,13.30
2018-09-08T06:14:54.605Z,13.40
2018-09-08T06:17:23.608Z,13.40
2018-09-08T06:19:53.118Z,13.50
2018-09-08T06:22:22.091Z,13.50
2018-09-08T06:24:51.087Z,13.50
2018-09-08T06:27:20.665Z,13.60
2018-09-08T06:29:49.736Z,13.60
2018-09-08T06:32:18.754Z,13.70
2018-09-08T06:34:47.727Z,13.70
2018-09-08T06:37:16.695Z,13.70
2018-09-08T06:39:49.717Z,13.80
2018-09-08T06:42:18.893Z,13.80
2018-09-08T06:44:47.940Z,13.90
2018-09-08T06:47:17.077Z,13.90
2018-09-08T06:49:46.247Z,14.00
2018-09-08T06:52:15.445Z,14.10
2018-09-08T06:54:44.333Z,14.10
2018-09-08T06:57:13.317Z,14.20
2018-09-08T06:59:42.331Z,14.20
2018-09-08T07:02:11.305Z,14.30
2018-09-08T07:04:40.266Z,14.30
2018-09-08T07:07:12.762Z,14.40
2018-09-08T07:09:42.742Z,14.50
2018-09-08T07:12:11.838Z,14.50
2018-09-08T07:14:41.155Z,14.60
2018-09-08T07:17:10.242Z,14.70
2018-09-08T07:19:39.393Z,14.70
2018-09-08T07:22:08.428Z,14.80
2018-09-08T07:24:37.369Z,14.80
2018-09-08T07:27:06.352Z,14.90
2018-09-08T07:29:35.489Z,15.00
2018-09-08T07:32:04.475Z,15.10
2018-09-08T07:34:33.413Z,15.10
2018-09-08T07:37:02.448Z,15.20
2018-09-08T07:39:31.434Z,15.30
2018-09-08T07:42:00.542Z,15.30
2018-09-08T07:44:29.492Z,15.40
2018-09-08T07:46:58.430Z,15.50
2018-09-08T07:49:27.419Z,15.60
2018-09-08T07:51:56.413Z,15.60
2018-09-08T07:54:25.584Z,15.70
2018-09-08T07:56:54.638Z,15.70
2018-09-08T07:59:23.766Z,15.80
2018-09-08T08:01:52.828Z,15.80
2018-09-08T08:04:21.921Z,15.90
2018-09-08T08:06:50.978Z,16.00
2018-09-08T08:09:20.013Z,16.00
2018-09-08T08:11:48.987Z,16.10
2018-09-08T08:14:17.931Z,16.20
2018-09-08T08:16:47.092Z,16.20
2018-09-08T08:19:16.183Z,16.20
2018-09-08T08:21:45.126Z,16.30
2018-09-08T08:24:14.083Z,16.30
2018-09-08T08:26:43.072Z,16.40
2018-09-08T08:29:12.078Z,16.40
2018-09-08T08:31:41.011Z,16.50
2018-09-08T08:34:10.411Z,16.50
2018-09-08T08:36:39.430Z,16.50
2018-09-08T08:39:09.041Z,16.60
2018-09-08T08:41:38.029Z,16.70
2018-09-08T08:44:07.441Z,16.70
2018-09-08T08:46:36.471Z,16.70
2018-09-08T08:49:05.801Z,16.80
2018-09-08T08:51:46.059Z,16.80
2018-09-08T08:54:18.083Z,16.90
2018-09-08T08:56:47.006Z,17.00
2018-09-08T08:59:16.428Z,17.00
2018-09-08T09:01:45.402Z,17.00
2018-09-08T09:04:14.332Z,17.00
2018-09-08T09:06:43.427Z,17.00
2018-09-08T09:09:14.000Z,17.00
2018-09-08T09:11:43.779Z,17.00
2018-09-08T09:14:13.533Z,17.10
2018-09-08T09:16:42.607Z,17.10
2018-09-08T09:19:37.187Z,17.20
2018-09-08T09:22:18.949Z,17.20
2018-09-08T09:24:56.312Z,17.20
2018-09-08T09:27:25.753Z,17.30
2018-09-08T09:29:55.109Z,17.30
2018-09-08T09:32:24.157Z,17.40
2018-09-08T09:34:53.109Z,17.40
2018-09-08T09:37:22.624Z,17.40
2018-09-08T09:39:52.678Z,17.40
2018-09-08T09:42:21.729Z,17.40
2018-09-08T09:44:50.682Z,17.50
2018-09-08T09:47:19.645Z,17.50
2018-09-08T09:49:49.067Z,17.50
2018-09-08T09:52:18.060Z,17.60
2018-09-08T09:54:47.212Z,17.70
2018-09-08T09:57:16.307Z,17.70
2018-09-08T09:59:45.662Z,17.70
2018-09-08T10:02:45.217Z,17.80
2018-09-08T10:05:16.548Z,17.80
2018-09-08T10:07:45.724Z,17.80
2018-09-08T10:10:16.330Z,17.80
2018-09-08T10:12:45.772Z,17.80
2018-09-08T10:15:14.783Z,17.90
2018-09-08T10:17:44.857Z,17.90
2018-09-08T10:20:16.369Z,17.90
2018-09-08T10:22:45.372Z,18.00
2018-09-08T10:25:15.394Z,18.00
2018-09-08T10:27:45.220Z,18.10
2018-09-08T10:30:14.726Z,18.10
2018-09-08T10:32:44.534Z,18.10
2018-09-08T10:35:14.136Z,18.10
2018-09-08T10:37:43.102Z,18.20
2018-09-08T10:40:13.135Z,18.20
2018-09-08T10:42:42.734Z,18.20
2018-09-08T10:45:12.069Z,18.20
2018-09-08T10:47:41.013Z,18.20
2018-09-08T10:50:11.073Z,18.30
2018-09-08T10:52:44.815Z,18.40
2018-09-08T10:55:13.830Z,18.60
2018-09-08T10:57:42.830Z,18.60
2018-09-08T11:00:12.579Z,18.60
2018-09-08T11:02:41.942Z,18.60
2018-09-08T11:05:10.847Z,18.70
2018-09-08T11:07:39.873Z,18.70
2018-09-08T11:10:09.120Z,18.70
2018-09-08T11:12:38.077Z,18.70
2018-09-08T11:15:08.255Z,18.80
2018-09-08T11:17:37.304Z,18.90
2018-09-08T11:20:07.191Z,18.90
2018-09-08T11:22:36.131Z,19.00
2018-09-08T11:25:05.577Z,19.00
2018-09-08T11:27:34.637Z,19.10
2018-09-08T11:30:03.592Z,19.10
2018-09-08T11:32:32.967Z,19.10
2018-09-08T11:35:02.002Z,19.10
2018-09-08T11:37:30.994Z,19.10
2018-09-08T11:40:00.006Z,19.10
2018-09-08T11:42:29.030Z,19.20
2018-09-08T11:44:57.990Z,19.20
2018-09-08T11:47:27.114Z,19.20
2018-09-08T11:49:56.116Z,19.20
2018-09-08T11:52:25.066Z,19.30
2018-09-08T11:54:54.062Z,19.40
2018-09-08T11:57:23.002Z,19.40
2018-09-08T11:59:51.962Z,19.50
2018-09-08T12:02:20.991Z,19.50
2018-09-08T12:04:50.049Z,19.60
2018-09-08T12:07:19.039Z,19.70
2018-09-08T12:09:48.248Z,19.80
2018-09-08T12:12:17.266Z,20.00
2018-09-08T12:14:46.179Z,20.10
2018-09-08T12:17:14.852Z,20.20
2018-09-08T12:19:43.514Z,20.40
2018-09-08T12:22:12.626Z,20.60
2018-09-08T12:24:42.030Z,20.80
2018-09-08T12:27:11.003Z,20.90
2018-09-08T12:29:39.997Z,21.00
2018-09-08T12:32:09.056Z,21.10
2018-09-08T12:34:38.179Z,21.20
2018-09-08T12:37:07.104Z,21.20
2018-09-08T12:39:35.936Z,21.20
2018-09-08T12:42:04.858Z,21.30
2018-09-08T12:44:33.645Z,21.40
2018-09-08T12:47:02.304Z,21.50
2018-09-08T12:49:31.247Z,21.50
2018-09-08T12:52:00.190Z,21.60
2018-09-08T12:54:29.087Z,21.70
2018-09-08T12:56:58.327Z,21.80
2018-09-08T12:59:27.006Z,22.00
2018-09-08T13:01:55.858Z,22.00
2018-09-08T13:04:24.493Z,22.10
2018-09-08T13:06:53.142Z,22.20
2018-09-08T13:09:21.757Z,22.10
2018-09-08T13:11:50.594Z,22.00
2018-09-08T13:14:19.217Z,21.90
2018-09-08T13:16:48.098Z,21.90
2018-09-08T13:19:16.791Z,22.00
2018-09-08T13:21:45.603Z,22.20
2018-09-08T13:24:14.461Z,22.40
2018-09-08T13:26:43.153Z,22.60
2018-09-08T13:29:11.819Z,22.60
2018-09-08T13:31:40.571Z,22.70
2018-09-08T13:34:09.233Z,22.80
2018-09-08T13:36:37.967Z,23.00
2018-09-08T13:39:07.595Z,23.20
2018-09-08T13:41:36.275Z,23.30
2018-09-08T13:44:05.249Z,23.30
2018-09-08T13:46:33.865Z,23.20
2018-09-08T13:49:02.545Z,23.20
2018-09-08T13:51:31.347Z,23.10
2018-09-08T13:53:59.966Z,23.00
2018-09-08T13:56:28.608Z,22.90
2018-09-08T13:58:57.268Z,22.90
2018-09-08T14:01:25.942Z,22.90
2018-09-08T14:03:54.652Z,22.90
2018-09-08T14:06:23.467Z,23.00
2018-09-08T14:08:52.100Z,22.90
2018-09-08T14:11:20.760Z,23.00
2018-09-08T14:13:49.488Z,23.00
2018-09-08T14:16:18.138Z,23.00
2018-09-08T14:18:46.810Z,23.10
2018-09-08T14:21:15.786Z,23.10
2018-09-08T14:23:44.516Z,23.30
2018-09-08T14:26:13.180Z,23.60
2018-09-08T14:28:41.895Z,23.90
2018-09-08T14:31:10.686Z,24.30
2018-09-08T14:33:39.496Z,24.50
2018-09-08T14:36:08.276Z,24.60
2018-09-08T14:38:36.914Z,24.70
2018-09-08T14:41:05.766Z,24.80
2018-09-08T14:43:34.659Z,25.10
2018-09-08T14:46:03.355Z,25.60
2018-09-08T14:48:32.018Z,26.00
2018-09-08T14:51:00.651Z,26.10
2018-09-08T14:53:29.304Z,26.00
2018-09-08T14:55:58.003Z,26.20
2018-09-08T14:58:26.644Z,26.50
2018-09-08T15:00:55.705Z,26.40
2018-09-08T15:03:24.324Z,26.30
2018-09-08T15:05:52.991Z,26.20
2018-09-08T15:08:21.721Z,26.20
2018-09-08T15:10:50.374Z,26.20
2018-09-08T15:13:19.025Z,26.20
2018-09-08T15:15:47.689Z,26.10
2018-09-08T15:18:16.347Z,26.10
2018-09-08T15:20:45.252Z,25.90
2018-09-08T15:23:13.937Z,25.90
2018-09-08T15:25:42.701Z,25.80
2018-09-08T15:28:11.361Z,25.90
2018-09-08T15:30:40.073Z,25.80
2018-09-08T15:33:08.696Z,25.90
2018-09-08T15:35:37.483Z,25.80
2018-09-08T15:38:06.165Z,25.80
2018-09-08T15:40:34.785Z,25.80
2018-09-08T15:43:03.833Z,25.80
2018-09-08T15:45:32.541Z,25.80
2018-09-08T15:48:01.360Z,25.80
2018-09-08T15:50:30.013Z,25.70
2018-09-08T15:52:58.772Z,25.60
2018-09-08T15:55:29.302Z,25.60
2018-09-08T15:57:58.012Z,25.60
2018-09-08T16:00:26.678Z,25.50
2018-09-08T16:02:55.318Z,25.30
2018-09-08T16:05:23.962Z,25.00
2018-09-08T16:07:52.573Z,24.80
2018-09-08T16:10:21.444Z,24.70
2018-09-08T16:12:50.086Z,24.30
2018-09-08T16:15:18.766Z,24.10
2018-09-08T16:17:47.492Z,23.90
2018-09-08T16:20:16.144Z,23.70
2018-09-08T16:22:44.846Z,23.50
2018-09-08T16:25:13.520Z,23.30
2018-09-08T16:27:42.183Z,23.20
2018-09-08T16:30:10.873Z,23.10
2018-09-08T16:32:39.664Z,23.00
2018-09-08T16:35:08.369Z,22.90
2018-09-08T16:37:37.103Z,22.80
2018-09-08T16:40:06.382Z,22.70
2018-09-08T16:42:35.366Z,22.50
2018-09-08T16:45:04.098Z,22.30
2018-09-08T16:47:32.745Z,22.10
2018-09-08T16:50:01.742Z,22.00
2018-09-08T16:52:30.561Z,21.80
2018-09-08T16:54:59.729Z,21.70
2018-09-08T16:57:29.037Z,21.60
2018-09-08T16:59:58.085Z,21.50
2018-09-08T17:02:27.082Z,21.40
2018-09-08T17:04:56.034Z,21.30
2018-09-08T17:07:25.198Z,21.10
2018-09-08T17:09:54.150Z,21.00
2018-09-08T17:12:23.270Z,21.00
2018-09-08T17:14:52.246Z,20.90
2018-09-08T17:17:21.822Z,20.80
2018-09-08T17:19:50.791Z,20.70
2018-09-08T17:22:19.783Z,20.60
2018-09-08T17:24:48.713Z,20.60
2018-09-08T17:27:17.889Z,20.50
2018-09-08T17:29:46.965Z,20.40
2018-09-08T17:32:16.003Z,20.30
2018-09-08T17:34:45.057Z,20.30
2018-09-08T17:37:13.972Z,20.20
2018-09-08T17:39:42.949Z,20.10
2018-09-08T17:42:11.882Z,20.00
2018-09-08T17:44:40.795Z,19.90
2018-09-08T17:47:09.749Z,19.90
2018-09-08T17:49:38.709Z,19.80
2018-09-08T17:52:08.117Z,19.70
2018-09-08T17:54:37.263Z,19.60
2018-09-08T17:57:06.242Z,19.50
2018-09-08T17:59:35.280Z,19.40
2018-09-08T18:02:04.278Z,19.40
2018-09-08T18:04:33.232Z,19.30
2018-09-08T18:07:02.119Z,19.20
2018-09-08T18:09:31.117Z,19.10
2018-09-08T18:12:00.061Z,19.10
2018-09-08T18:14:29.273Z,19.00
2018-09-08T18:16:58.216Z,19.00
2018-09-08T18:19:27.624Z,18.90
2018-09-08T18:21:56.567Z,18.80
2018-09-08T18:24:25.641Z,18.80
2018-09-08T18:26:54.794Z,18.80
2018-09-08T18:29:23.812Z,18.80
2018-09-08T18:31:52.751Z,18.70
2018-09-08T18:34:21.724Z,18.70
2018-09-08T18:36:50.679Z,18.70
2018-09-08T18:39:19.817Z,18.60
2018-09-08T18:41:48.779Z,18.60
2018-09-08T18:44:17.917Z,18.60
2018-09-08T18:46:47.618Z,18.50
2018-09-08T18:49:16.953Z,18.40
2018-09-08T18:51:45.911Z,18.40
2018-09-08T18:54:14.940Z,18.30
2018-09-08T18:56:44.429Z,18.20
2018-09-08T18:59:13.416Z,18.10
2018-09-08T19:01:42.785Z,18.00
2018-09-08T19:04:11.887Z,18.00
2018-09-08T19:06:40.862Z,17.90
2018-09-08T19:09:09.825Z,17.90
2018-09-08T19:11:39.629Z,17.90
2018-09-08T19:14:13.289Z,17.80
2018-09-08T19:16:42.241Z,17.80
2018-09-08T19:19:11.336Z,17.70
2018-09-08T19:21:40.567Z,17.70
2018-09-08T19:24:14.893Z,17.60
2018-09-08T19:26:43.825Z,17.60
2018-09-08T19:29:18.661Z,17.50
2018-09-08T19:31:47.781Z,17.50
2018-09-08T19:34:17.155Z,17.40
2018-09-08T19:36:46.159Z,17.40
2018-09-08T19:39:15.215Z,17.30
2018-09-08T19:41:44.800Z,17.30
2018-09-08T19:44:13.895Z,17.30
2018-09-08T19:46:48.199Z,17.30
2018-09-08T19:49:17.159Z,17.30
2018-09-08T19:51:46.250Z,17.30
2018-09-08T19:54:15.236Z,17.30
2018-09-08T19:56:49.498Z,17.20
2018-09-08T19:59:18.513Z,17.20
2018-09-08T20:01:47.490Z,17.10
2018-09-08T20:04:17.232Z,17.00
2018-09-08T20:06:46.285Z,16.90
2018-09-08T20:09:15.237Z,16.90
2018-09-08T20:11:44.362Z,16.90
2018-09-08T20:14:13.346Z,16.80
2018-09-08T20:16:42.297Z,16.90
2018-09-08T20:19:11.354Z,16.80
2018-09-08T20:21:40.417Z,16.80
2018-09-08T20:24:09.390Z,16.80
2018-09-08T20:26:38.454Z,16.90
2018-09-08T20:29:07.723Z,16.90
2018-09-08T20:31:36.670Z,17.00
2018-09-08T20:34:05.636Z,17.00
2018-09-08T20:36:35.324Z,17.10
2018-09-08T20:39:05.104Z,17.10
2018-09-08T20:41:34.050Z,17.10
2018-09-08T20:44:03.011Z,17.10
2018-09-08T20:46:31.996Z,17.10
2018-09-08T20:49:00.945Z,17.10
2018-09-08T20:51:29.902Z,17.00
2018-09-08T20:53:58.974Z,17.00
2018-09-08T20:56:28.302Z,16.90
2018-09-08T20:58:57.247Z,16.80
2018-09-08T21:01:26.456Z,16.70
2018-09-08T21:03:55.712Z,16.70
2018-09-08T21:06:24.800Z,16.60
2018-09-08T21:08:53.763Z,16.50
2018-09-08T21:11:22.758Z,16.40
2018-09-08T21:13:51.717Z,16.40
2018-09-08T21:16:20.696Z,16.30
2018-09-08T21:18:49.684Z,16.20
2018-09-08T21:21:18.609Z,16.20
2018-09-08T21:23:47.609Z,16.10
2018-09-08T21:26:16.551Z,16.10
2018-09-08T21:28:45.687Z,16.00
2018-09-08T21:31:14.651Z,16.00
2018-09-08T21:33:43.579Z,16.00
2018-09-08T21:36:12.558Z,16.00
2018-09-08T21:38:41.923Z,15.90
2018-09-08T21:41:10.970Z,15.90
2018-09-08T21:43:39.971Z,15.90
2018-09-08T21:46:08.919Z,15.80
2018-09-08T21:48:37.890Z,15.80
2018-09-08T21:51:06.899Z,15.70
2018-09-08T21:53:35.879Z,15.70
2018-09-08T21:56:04.867Z,15.60
2018-09-08T21:58:34.421Z,15.60
2018-09-08T22:01:08.729Z,15.60
2018-09-08T22:03:37.665Z,15.60
2018-09-08T22:06:06.969Z,15.60
2018-09-08T22:08:36.849Z,15.60
2018-09-08T22:11:07.010Z,15.60
2018-09-08T22:13:36.373Z,15.60
2018-09-08T22:16:05.472Z,15.50
2018-09-08T22:18:35.008Z,15.40
2018-09-08T22:21:03.978Z,15.30
2018-09-08T22:23:32.898Z,15.30
2018-09-08T22:26:01.838Z,15.20
2018-09-08T22:28:30.794Z,15.30
2018-09-08T22:30:59.719Z,15.20
2018-09-08T22:33:28.670Z,15.10
2018-09-08T22:35:57.663Z,15.10
2018-09-08T22:38:26.810Z,15.10
2018-09-08T22:40:55.764Z,15.10
2018-09-08T22:43:24.712Z,15.10
2018-09-08T22:45:53.658Z,15.20
2018-09-08T22:48:22.596Z,15.20
2018-09-08T22:50:51.568Z,15.30
2018-09-08T22:53:20.521Z,15.30
2018-09-08T22:55:49.492Z,15.30
2018-09-08T22:58:18.495Z,15.40
2018-09-08T23:00:47.428Z,15.40
2018-09-08T23:03:16.368Z,15.40
2018-09-08T23:05:45.356Z,15.40
2018-09-08T23:08:14.304Z,15.40
2018-09-08T23:10:43.243Z,15.30
2018-09-08T23:13:12.178Z,15.30
2018-09-08T23:15:41.154Z,15.20
2018-09-08T23:18:10.084Z,15.20
2018-09-08T23:20:39.074Z,15.20
2018-09-08T23:23:08.019Z,15.20
2018-09-08T23:25:36.996Z,15.10
2018-09-08T23:28:05.963Z,15.10
2018-09-08T23:30:35.044Z,15.10
2018-09-08T23:33:03.981Z,15.00
2018-09-08T23:35:32.920Z,15.00
2018-09-08T23:38:01.905Z,14.90
2018-09-08T23:40:30.913Z,14.90
2018-09-08T23:42:59.857Z,14.90
2018-09-08T23:45:28.914Z,14.80
2018-09-08T23:47:57.823Z,14.80
2018-09-08T23:50:26.861Z,14.80
2018-09-08T23:52:55.921Z,14.80
2018-09-08T23:55:24.869Z,14.80
2018-09-08T23:57:53.838Z,14.70
